createdAt,value
2022-10-07T00:01:24.828Z,12.46
2022-10-07T00:03:27.915Z,12.44
2022-10-07T00:05:29.491Z,12.44
2022-10-07T00:07:31.160Z,12.45
2022-10-07T00:09:33.220Z,12.44
2022-10-07T00:11:34.921Z,12.46
2022-10-07T00:13:41.299Z,12.45
2022-10-07T00:15:42.935Z,12.40
2022-10-07T00:17:45.240Z,12.33
2022-10-07T00:19:47.306Z,12.26
2022-10-07T00:21:48.983Z,12.31
2022-10-07T00:23:50.972Z,12.33
2022-10-07T00:25:52.612Z,12.32
2022-10-07T00:27:54.300Z,12.33
2022-10-07T00:29:55.891Z,12.37
2022-10-07T00:31:57.570Z,12.35
2022-10-07T00:33:59.507Z,12.39
2022-10-07T00:36:01.128Z,12.38
2022-10-07T00:38:03.008Z,12.34
2022-10-07T00:40:05.045Z,12.33
2022-10-07T00:42:06.713Z,12.31
2022-10-07T00:44:27.177Z,12.24
2022-10-07T00:46:39.804Z,12.21
2022-10-07T00:48:42.663Z,12.19
2022-10-07T00:50:44.678Z,12.11
2022-10-07T00:52:50.438Z,12.10
2022-10-07T00:54:53.690Z,12.06
2022-10-07T00:56:55.362Z,12.06
2022-10-07T00:58:59.383Z,12.06
2022-10-07T01:01:01.487Z,12.03
2022-10-07T01:03:04.371Z,12.00
2022-10-07T01:05:07.874Z,11.98
2022-10-07T01:07:09.803Z,11.96
2022-10-07T01:09:11.875Z,11.92
2022-10-07T01:11:22.037Z,11.86
2022-10-07T01:13:39.373Z,11.82
2022-10-07T01:15:49.515Z,11.79
2022-10-07T01:17:59.269Z,11.82
2022-10-07T01:20:19.885Z,11.85
2022-10-07T01:22:39.046Z,11.81
2022-10-07T01:24:45.573Z,11.80
2022-10-07T01:27:22.940Z,11.76
2022-10-07T01:29:30.515Z,11.74
2022-10-07T01:31:57.934Z,11.69
2022-10-07T01:34:00.284Z,11.65
2022-10-07T01:36:09.012Z,11.62
2022-10-07T01:38:12.194Z,11.64
2022-10-07T01:40:17.031Z,11.63
2022-10-07T01:42:20.128Z,11.64
2022-10-07T01:44:21.822Z,11.64
2022-10-07T01:46:25.774Z,11.61
2022-10-07T01:48:27.424Z,11.53
2022-10-07T01:50:30.101Z,11.50
2022-10-07T01:52:34.637Z,11.40
2022-10-07T01:55:00.766Z,11.26
2022-10-07T01:57:05.366Z,11.28
2022-10-07T01:59:07.135Z,11.28
2022-10-07T02:01:19.173Z,11.32
2022-10-07T02:03:30.181Z,11.29
2022-10-07T02:05:49.130Z,11.15
2022-10-07T02:08:24.768Z,10.82
2022-10-07T02:10:41.702Z,10.60
2022-10-07T02:12:56.364Z,10.58
2022-10-07T02:15:10.641Z,10.50
2022-10-07T02:17:14.346Z,10.50
2022-10-07T02:19:19.857Z,10.54
2022-10-07T02:21:27.226Z,10.58
2022-10-07T02:23:29.632Z,10.59
2022-10-07T02:25:36.101Z,10.54
2022-10-07T02:27:38.800Z,10.54
2022-10-07T02:29:41.289Z,10.66
2022-10-07T02:31:43.587Z,10.77
2022-10-07T02:33:47.205Z,10.87
2022-10-07T02:35:54.897Z,10.95
2022-10-07T02:37:58.562Z,11.01
2022-10-07T02:40:01.003Z,11.04
2022-10-07T02:42:05.761Z,11.02
2022-10-07T02:44:15.624Z,10.98
2022-10-07T02:46:24.809Z,10.92
2022-10-07T02:48:28.839Z,10.91
2022-10-07T02:50:37.851Z,10.89
2022-10-07T02:52:40.391Z,10.94
2022-10-07T02:54:46.205Z,11.02
2022-10-07T02:56:48.964Z,11.04
2022-10-07T02:58:51.292Z,11.01
2022-10-07T03:00:58.032Z,11.02
2022-10-07T03:03:05.207Z,11.01
2022-10-07T03:05:08.603Z,11.01
2022-10-07T03:07:12.222Z,10.97
2022-10-07T03:09:14.011Z,10.91
2022-10-07T03:11:15.709Z,10.65
2022-10-07T03:13:17.390Z,10.62
2022-10-07T03:15:19.239Z,10.31
2022-10-07T03:17:20.853Z,10.36
2022-10-07T03:19:22.591Z,10.20
2022-10-07T03:21:25.288Z,10.23
2022-10-07T03:23:29.237Z,10.15
2022-10-07T03:25:30.828Z,10.25
2022-10-07T03:27:32.486Z,10.31
2022-10-07T03:29:35.087Z,10.41
2022-10-07T03:31:37.108Z,10.42
2022-10-07T03:33:38.826Z,10.45
2022-10-07T03:35:40.459Z,10.52
2022-10-07T03:37:42.620Z,10.56
2022-10-07T03:39:44.572Z,10.60
2022-10-07T03:41:48.516Z,10.68
2022-10-07T03:43:50.198Z,10.51
2022-10-07T03:45:52.143Z,10.28
2022-10-07T03:47:53.736Z,10.25
2022-10-07T03:49:56.910Z,10.27
2022-10-07T03:52:00.235Z,10.20
2022-10-07T03:54:01.921Z,10.17
2022-10-07T03:56:03.599Z,10.21
2022-10-07T03:58:05.242Z,10.34
2022-10-07T04:00:07.473Z,10.41
2022-10-07T04:02:09.609Z,10.48
2022-10-07T04:04:12.160Z,10.56
2022-10-07T04:06:14.382Z,10.60
2022-10-07T04:08:17.459Z,10.62
2022-10-07T04:10:19.745Z,10.62
2022-10-07T04:12:21.383Z,10.64
2022-10-07T04:14:22.955Z,10.68
2022-10-07T04:16:24.735Z,10.74
2022-10-07T04:18:26.376Z,10.78
2022-10-07T04:20:28.033Z,10.77
2022-10-07T04:22:31.594Z,10.80
2022-10-07T04:24:33.288Z,10.82
2022-10-07T04:26:34.943Z,10.88
2022-10-07T04:28:36.901Z,10.85
2022-10-07T04:30:40.158Z,10.82
2022-10-07T04:32:41.851Z,10.84
2022-10-07T04:34:43.475Z,10.84
2022-10-07T04:36:45.033Z,10.84
2022-10-07T04:38:53.265Z,10.89
2022-10-07T04:40:54.826Z,10.90
2022-10-07T04:43:14.937Z,10.93
2022-10-07T04:45:16.592Z,10.84
2022-10-07T04:47:18.208Z,10.83
2022-10-07T04:49:19.753Z,10.86
2022-10-07T04:51:22.994Z,10.92
2022-10-07T04:53:25.003Z,10.99
2022-10-07T04:55:26.621Z,11.00
2022-10-07T04:57:28.343Z,11.06
2022-10-07T04:59:30.294Z,11.12
2022-10-07T05:01:32.052Z,11.11
2022-10-07T05:03:36.444Z,11.12
2022-10-07T05:05:41.716Z,11.13
2022-10-07T05:07:43.554Z,11.15
2022-10-07T05:09:45.796Z,11.11
2022-10-07T05:11:48.247Z,11.14
2022-10-07T05:13:49.868Z,11.05
2022-10-07T05:15:53.618Z,10.96
2022-10-07T05:17:56.043Z,10.94
2022-10-07T05:19:57.630Z,10.80
2022-10-07T05:21:59.606Z,10.68
2022-10-07T05:24:01.140Z,10.70
2022-10-07T05:26:08.043Z,10.93
2022-10-07T05:28:14.759Z,11.12
2022-10-07T05:30:17.380Z,11.27
2022-10-07T05:32:19.053Z,11.40
2022-10-07T05:34:20.701Z,11.54
2022-10-07T05:36:22.301Z,11.62
2022-10-07T05:38:23.927Z,11.75
2022-10-07T05:40:25.725Z,11.79
2022-10-07T05:42:27.407Z,11.94
2022-10-07T05:44:31.420Z,12.05
2022-10-07T05:46:33.510Z,12.13
2022-10-07T05:48:39.243Z,12.22
2022-10-07T05:50:42.367Z,12.33
2022-10-07T05:52:45.396Z,12.38
2022-10-07T05:54:47.056Z,12.44
2022-10-07T05:56:49.646Z,12.59
2022-10-07T05:58:56.172Z,12.63
2022-10-07T06:01:03.998Z,12.54
2022-10-07T06:03:08.178Z,12.58
2022-10-07T06:05:10.181Z,12.61
2022-10-07T06:07:13.469Z,12.72
2022-10-07T06:09:36.009Z,12.88
2022-10-07T06:11:56.501Z,12.60
2022-10-07T06:13:58.215Z,12.61
2022-10-07T06:16:09.122Z,12.68
2022-10-07T06:18:10.772Z,12.71
2022-10-07T06:20:13.281Z,12.80
2022-10-07T06:22:15.020Z,12.84
2022-10-07T06:24:16.821Z,12.92
2022-10-07T06:26:18.816Z,12.81
2022-10-07T06:28:20.531Z,12.81
2022-10-07T06:30:22.254Z,12.97
2022-10-07T06:32:24.030Z,13.15
2022-10-07T06:34:25.663Z,13.22
2022-10-07T06:36:27.857Z,13.20
2022-10-07T06:38:29.426Z,13.28
2022-10-07T06:40:31.533Z,13.44
2022-10-07T06:42:33.173Z,13.62
2022-10-07T06:44:35.117Z,13.77
2022-10-07T06:46:36.945Z,13.89
2022-10-07T06:48:40.898Z,14.04
2022-10-07T06:50:50.928Z,14.20
2022-10-07T06:52:52.583Z,14.37
2022-10-07T06:54:54.162Z,14.49
2022-10-07T06:56:55.791Z,14.64
2022-10-07T06:58:57.641Z,14.76
2022-10-07T07:01:02.429Z,14.64
2022-10-07T07:03:04.337Z,14.72
2022-10-07T07:05:08.679Z,14.82
2022-10-07T07:07:10.391Z,14.91
2022-10-07T07:09:11.958Z,15.03
2022-10-07T07:11:32.794Z,15.15
2022-10-07T07:13:36.204Z,15.19
2022-10-07T07:15:38.969Z,15.23
2022-10-07T07:17:40.613Z,14.55
2022-10-07T07:19:42.820Z,14.55
2022-10-07T07:21:47.618Z,14.70
2022-10-07T07:23:53.751Z,14.89
2022-10-07T07:25:55.454Z,15.07
2022-10-07T07:28:00.819Z,15.25
2022-10-07T07:30:03.842Z,15.40
2022-10-07T07:32:06.299Z,15.55
2022-10-07T07:34:13.642Z,15.50
2022-10-07T07:36:16.600Z,15.51
2022-10-07T07:38:20.168Z,15.65
2022-10-07T07:40:23.729Z,15.74
2022-10-07T07:42:25.931Z,15.56
2022-10-07T07:44:33.997Z,15.67
2022-10-07T07:46:56.158Z,15.23
2022-10-07T07:48:58.646Z,15.08
2022-10-07T07:51:00.580Z,15.10
2022-10-07T07:53:04.522Z,15.06
2022-10-07T07:55:06.501Z,15.30
2022-10-07T07:57:08.414Z,15.20
2022-10-07T07:59:10.783Z,15.39
2022-10-07T08:01:18.689Z,15.49
2022-10-07T08:03:20.326Z,15.55
2022-10-07T08:05:24.039Z,15.66
2022-10-07T08:07:26.925Z,15.79
2022-10-07T08:09:28.583Z,15.91
2022-10-07T08:11:30.480Z,16.01
2022-10-07T08:13:33.135Z,16.17
2022-10-07T08:15:34.772Z,16.37
2022-10-07T08:17:36.444Z,16.51
2022-10-07T08:19:38.654Z,16.36
2022-10-07T08:21:40.517Z,16.41
2022-10-07T08:23:42.742Z,16.65
2022-10-07T08:25:44.420Z,16.84
2022-10-07T08:27:46.299Z,17.04
2022-10-07T08:29:48.030Z,17.03
2022-10-07T08:31:49.697Z,17.23
2022-10-07T08:33:51.391Z,17.38
2022-10-07T08:35:58.767Z,17.52
2022-10-07T08:38:00.368Z,17.63
2022-10-07T08:40:02.561Z,17.77
2022-10-07T08:42:26.389Z,17.88
2022-10-07T08:44:32.428Z,17.90
2022-10-07T08:46:36.146Z,18.04
2022-10-07T08:48:39.302Z,18.08
2022-10-07T08:50:41.009Z,18.07
2022-10-07T08:52:52.809Z,18.15
2022-10-07T08:54:54.625Z,18.27
2022-10-07T08:57:01.058Z,18.36
2022-10-07T08:59:09.709Z,17.65
2022-10-07T09:01:39.238Z,17.65
2022-10-07T09:03:44.002Z,17.92
2022-10-07T09:05:49.636Z,18.08
2022-10-07T09:07:57.524Z,18.14
2022-10-07T09:10:01.663Z,18.31
2022-10-07T09:12:05.533Z,18.46
2022-10-07T09:14:33.341Z,18.52
2022-10-07T09:16:38.641Z,18.59
2022-10-07T09:18:49.482Z,18.61
2022-10-07T09:21:12.796Z,18.65
2022-10-07T09:23:17.865Z,18.75
2022-10-07T09:25:25.337Z,18.82
2022-10-07T09:27:27.089Z,18.87
2022-10-07T09:29:30.059Z,18.93
2022-10-07T09:31:32.811Z,18.94
2022-10-07T09:33:42.483Z,18.72
2022-10-07T09:36:06.290Z,18.40
2022-10-07T09:38:09.232Z,18.58
2022-10-07T09:40:23.440Z,18.64
2022-10-07T09:42:28.764Z,18.30
2022-10-07T09:44:30.776Z,18.65
2022-10-07T09:46:49.280Z,18.56
2022-10-07T09:48:55.235Z,18.67
2022-10-07T09:51:18.245Z,18.81
2022-10-07T09:53:24.145Z,18.74
2022-10-07T09:55:40.228Z,18.98
2022-10-07T09:57:42.178Z,18.81
2022-10-07T09:59:43.934Z,18.68
2022-10-07T10:01:59.865Z,18.85
2022-10-07T10:04:01.626Z,18.39
2022-10-07T10:06:08.722Z,18.32
2022-10-07T10:08:13.302Z,18.13
2022-10-07T10:10:23.166Z,18.44
2022-10-07T10:12:25.489Z,18.58
2022-10-07T10:14:41.761Z,18.73
2022-10-07T10:16:46.820Z,18.89
2022-10-07T10:19:06.062Z,18.77
2022-10-07T10:21:35.924Z,18.54
2022-10-07T10:23:38.654Z,18.86
2022-10-07T10:26:12.497Z,19.02
2022-10-07T10:28:45.048Z,19.28
2022-10-07T10:30:52.963Z,19.60
2022-10-07T10:33:12.239Z,19.86
2022-10-07T10:35:29.500Z,19.83
2022-10-07T10:37:39.895Z,19.80
2022-10-07T10:39:59.463Z,19.91
2022-10-07T10:42:02.529Z,20.11
2022-10-07T10:44:23.256Z,20.30
2022-10-07T10:47:07.587Z,20.48
2022-10-07T10:49:36.601Z,20.62
2022-10-07T10:51:42.339Z,20.59
2022-10-07T10:53:57.228Z,20.67
2022-10-07T10:56:13.841Z,20.49
2022-10-07T10:58:45.065Z,20.54
2022-10-07T11:01:14.093Z,20.60
2022-10-07T11:03:32.759Z,20.58
2022-10-07T11:05:37.299Z,20.74
2022-10-07T11:07:50.073Z,20.75
2022-10-07T11:10:13.552Z,20.58
2022-10-07T11:12:46.739Z,20.05
2022-10-07T11:14:57.747Z,19.56
2022-10-07T11:17:03.849Z,19.75
2022-10-07T11:19:16.590Z,19.92
2022-10-07T11:21:33.666Z,19.34
2022-10-07T11:23:51.924Z,19.72
2022-10-07T11:26:06.255Z,19.98
2022-10-07T11:28:20.247Z,19.85
2022-10-07T11:30:23.203Z,19.44
2022-10-07T11:32:36.042Z,19.27
2022-10-07T11:34:54.298Z,19.54
2022-10-07T11:37:06.313Z,19.82
2022-10-07T11:39:09.092Z,19.81
2022-10-07T11:41:51.117Z,19.89
2022-10-07T11:43:57.309Z,20.10
2022-10-07T11:46:11.527Z,20.00
2022-10-07T11:48:19.955Z,20.04
2022-10-07T11:50:28.981Z,20.24
2022-10-07T11:52:37.093Z,20.40
2022-10-07T11:54:50.360Z,20.26
2022-10-07T11:56:53.494Z,20.04
2022-10-07T11:59:01.132Z,19.64
2022-10-07T12:01:29.010Z,19.82
2022-10-07T12:03:30.579Z,20.00
2022-10-07T12:05:35.252Z,19.98
2022-10-07T12:07:38.211Z,20.03
2022-10-07T12:09:54.430Z,20.24
2022-10-07T12:11:56.690Z,20.38
2022-10-07T12:14:38.450Z,20.59
2022-10-07T12:16:43.151Z,20.66
2022-10-07T12:19:07.970Z,20.66
2022-10-07T12:21:28.144Z,20.65
2022-10-07T12:23:36.343Z,20.09
2022-10-07T12:25:42.619Z,19.46
2022-10-07T12:27:46.398Z,19.29
2022-10-07T12:29:58.790Z,19.39
2022-10-07T12:32:00.747Z,19.51
2022-10-07T12:34:05.230Z,19.60
2022-10-07T12:36:18.658Z,19.78
2022-10-07T12:38:28.747Z,19.72
2022-10-07T12:40:30.658Z,19.86
2022-10-07T12:42:32.405Z,19.88
2022-10-07T12:44:39.382Z,19.64
2022-10-07T12:46:41.009Z,19.46
2022-10-07T12:49:06.464Z,19.36
2022-10-07T12:51:18.469Z,19.09
2022-10-07T12:53:24.633Z,19.13
2022-10-07T12:55:39.990Z,19.32
2022-10-07T12:57:43.399Z,19.48
2022-10-07T13:00:08.360Z,19.46
2022-10-07T13:02:47.876Z,19.41
2022-10-07T13:05:20.677Z,19.54
2022-10-07T13:07:54.819Z,19.42
2022-10-07T13:10:15.037Z,19.50
2022-10-07T13:12:26.178Z,19.53
2022-10-07T13:15:03.424Z,19.39
2022-10-07T13:17:27.821Z,19.35
2022-10-07T13:19:39.513Z,19.43
2022-10-07T13:21:47.343Z,19.42
2022-10-07T13:23:52.962Z,19.43
2022-10-07T13:25:56.509Z,19.55
2022-10-07T13:27:59.305Z,19.57
2022-10-07T13:30:02.888Z,19.75
2022-10-07T13:32:14.003Z,19.83
2022-10-07T13:34:18.065Z,19.71
2022-10-07T13:36:25.714Z,19.73
2022-10-07T13:38:28.542Z,19.82
2022-10-07T13:40:35.564Z,19.63
2022-10-07T13:42:37.284Z,19.80
2022-10-07T13:44:43.624Z,19.67
2022-10-07T13:47:00.068Z,19.53
2022-10-07T13:49:03.206Z,19.69
2022-10-07T13:51:05.632Z,19.70
2022-10-07T13:53:16.907Z,19.85
2022-10-07T13:55:38.741Z,19.80
2022-10-07T13:57:44.023Z,19.92
2022-10-07T13:59:47.130Z,19.98
2022-10-07T14:01:58.214Z,19.96
2022-10-07T14:04:20.263Z,19.99
2022-10-07T14:06:51.396Z,19.96
2022-10-07T14:08:52.966Z,19.69
2022-10-07T14:11:07.954Z,19.30
2022-10-07T14:13:15.671Z,19.19
2022-10-07T14:15:21.138Z,18.97
2022-10-07T14:17:28.364Z,18.94
2022-10-07T14:19:33.102Z,18.73
2022-10-07T14:21:40.633Z,18.70
2022-10-07T14:23:42.333Z,18.91
2022-10-07T14:26:06.323Z,19.02
2022-10-07T14:28:30.138Z,18.96
2022-10-07T14:30:56.069Z,18.92
2022-10-07T14:33:22.924Z,18.53
2022-10-07T14:35:26.985Z,18.24
2022-10-07T14:37:31.797Z,18.11
2022-10-07T14:39:40.698Z,18.18
2022-10-07T14:41:42.254Z,18.19
2022-10-07T14:43:45.499Z,18.18
2022-10-07T14:45:47.141Z,18.26
2022-10-07T14:47:49.639Z,18.41
2022-10-07T14:49:55.426Z,18.25
2022-10-07T14:51:57.333Z,18.39
2022-10-07T14:54:05.133Z,18.43
2022-10-07T14:56:07.026Z,18.45
2022-10-07T14:58:11.960Z,18.52
2022-10-07T15:00:22.624Z,18.65
2022-10-07T15:02:24.201Z,18.66
2022-10-07T15:04:25.899Z,18.57
2022-10-07T15:06:28.436Z,18.29
2022-10-07T15:08:31.568Z,18.08
2022-10-07T15:10:33.365Z,17.90
2022-10-07T15:12:34.921Z,17.67
2022-10-07T15:14:55.336Z,17.74
2022-10-07T15:16:57.725Z,17.85
2022-10-07T15:18:59.407Z,17.76
2022-10-07T15:21:00.962Z,17.74
2022-10-07T15:23:02.718Z,17.70
2022-10-07T15:25:06.102Z,17.44
2022-10-07T15:27:09.856Z,17.38
2022-10-07T15:29:13.521Z,17.28
2022-10-07T15:31:15.142Z,17.22
2022-10-07T15:33:16.722Z,17.32
2022-10-07T15:35:18.551Z,17.26
2022-10-07T15:37:21.333Z,17.15
2022-10-07T15:39:22.903Z,17.24
2022-10-07T15:41:41.672Z,17.27
2022-10-07T15:43:43.209Z,17.33
2022-10-07T15:45:45.059Z,17.39
2022-10-07T15:47:46.767Z,17.43
2022-10-07T15:49:49.652Z,17.39
2022-10-07T15:51:51.290Z,17.39
2022-10-07T15:53:54.113Z,17.44
2022-10-07T15:55:57.124Z,17.47
2022-10-07T15:57:59.053Z,17.51
2022-10-07T16:00:01.700Z,17.45
2022-10-07T16:02:05.729Z,17.43
2022-10-07T16:04:11.678Z,17.29
2022-10-07T16:06:16.330Z,17.31
2022-10-07T16:08:17.880Z,17.35
2022-10-07T16:10:19.436Z,17.39
2022-10-07T16:12:21.538Z,17.39
2022-10-07T16:14:23.196Z,17.39
2022-10-07T16:16:26.881Z,17.38
2022-10-07T16:18:30.010Z,17.30
2022-10-07T16:20:31.564Z,17.28
2022-10-07T16:22:33.243Z,17.15
2022-10-07T16:24:35.602Z,16.98
2022-10-07T16:26:37.557Z,16.87
2022-10-07T16:28:58.489Z,16.74
2022-10-07T16:31:00.135Z,16.79
2022-10-07T16:33:01.755Z,16.68
2022-10-07T16:35:03.554Z,16.72
2022-10-07T16:37:05.804Z,16.83
2022-10-07T16:39:10.706Z,16.90
2022-10-07T16:41:12.410Z,16.95
2022-10-07T16:43:13.986Z,17.02
2022-10-07T16:45:16.593Z,17.06
2022-10-07T16:47:18.324Z,17.04
2022-10-07T16:49:19.879Z,17.05
2022-10-07T16:51:36.351Z,16.95
2022-10-07T16:53:39.433Z,16.79
2022-10-07T16:55:41.244Z,16.57
2022-10-07T16:57:42.988Z,16.55
2022-10-07T16:59:44.748Z,16.52
2022-10-07T17:01:46.583Z,16.42
2022-10-07T17:03:49.959Z,16.33
2022-10-07T17:05:58.204Z,16.30
2022-10-07T17:07:59.816Z,16.23
2022-10-07T17:10:01.493Z,16.28
2022-10-07T17:12:04.662Z,16.25
2022-10-07T17:14:17.082Z,16.12
2022-10-07T17:16:18.770Z,16.18
2022-10-07T17:18:20.801Z,16.28
2022-10-07T17:20:23.116Z,16.35
2022-10-07T17:22:24.714Z,16.41
2022-10-07T17:24:27.078Z,16.47
2022-10-07T17:26:29.841Z,16.47
2022-10-07T17:28:31.445Z,16.49
2022-10-07T17:30:33.821Z,16.50
2022-10-07T17:32:35.393Z,16.52
2022-10-07T17:34:38.363Z,16.51
2022-10-07T17:36:43.928Z,16.49
2022-10-07T17:38:45.475Z,16.47
2022-10-07T17:40:47.067Z,16.46
2022-10-07T17:42:48.708Z,16.46
2022-10-07T17:44:50.472Z,16.44
2022-10-07T17:46:52.319Z,16.40
2022-10-07T17:48:57.403Z,16.33
2022-10-07T17:51:05.862Z,16.31
2022-10-07T17:53:07.567Z,16.29
2022-10-07T17:55:09.745Z,16.27
2022-10-07T17:57:11.306Z,16.19
2022-10-07T17:59:14.372Z,16.17
2022-10-07T18:01:27.137Z,16.13
2022-10-07T18:03:28.769Z,16.11
2022-10-07T18:05:30.331Z,16.06
2022-10-07T18:07:32.025Z,16.03
2022-10-07T18:09:33.830Z,15.95
2022-10-07T18:11:54.539Z,15.91
2022-10-07T18:14:14.477Z,15.88
2022-10-07T18:16:16.652Z,15.84
2022-10-07T18:18:18.263Z,15.83
2022-10-07T18:20:21.886Z,15.75
2022-10-07T18:22:24.415Z,15.73
2022-10-07T18:24:28.914Z,15.65
2022-10-07T18:26:30.657Z,15.63
2022-10-07T18:28:34.438Z,15.62
2022-10-07T18:30:35.897Z,15.63
2022-10-07T18:32:37.429Z,15.61
2022-10-07T18:34:39.307Z,15.53
2022-10-07T18:36:40.957Z,15.49
2022-10-07T18:38:44.331Z,15.47
2022-10-07T18:40:45.969Z,15.43
2022-10-07T18:42:47.547Z,15.42
2022-10-07T18:44:50.596Z,15.41
2022-10-07T18:46:52.461Z,15.39
2022-10-07T18:48:54.286Z,15.38
2022-10-07T18:50:55.855Z,15.36
2022-10-07T18:52:57.622Z,15.36
2022-10-07T18:54:59.160Z,15.33
2022-10-07T18:57:00.831Z,15.30
2022-10-07T18:59:02.616Z,15.25
2022-10-07T19:01:24.422Z,15.24
2022-10-07T19:03:26.129Z,15.19
2022-10-07T19:05:33.620Z,15.16
2022-10-07T19:07:35.521Z,15.13
2022-10-07T19:09:37.131Z,15.10
2022-10-07T19:11:38.717Z,15.07
2022-10-07T19:13:50.150Z,15.06
2022-10-07T19:15:52.216Z,15.06
2022-10-07T19:17:53.792Z,15.04
2022-10-07T19:19:57.838Z,15.05
2022-10-07T19:21:59.878Z,15.03
2022-10-07T19:24:02.779Z,15.04
2022-10-07T19:26:04.381Z,15.03
2022-10-07T19:28:06.281Z,14.99
2022-10-07T19:30:08.763Z,14.88
2022-10-07T19:32:10.404Z,14.83
2022-10-07T19:34:20.544Z,14.81
2022-10-07T19:36:23.285Z,14.85
2022-10-07T19:38:24.960Z,14.84
2022-10-07T19:40:26.600Z,14.84
2022-10-07T19:42:28.709Z,14.82
2022-10-07T19:44:33.681Z,14.82
2022-10-07T19:46:35.517Z,14.77
2022-10-07T19:48:37.375Z,14.71
2022-10-07T19:50:39.111Z,14.66
2022-10-07T19:52:40.905Z,14.61
2022-10-07T19:54:45.811Z,14.58
2022-10-07T19:56:47.418Z,14.59
2022-10-07T19:59:00.550Z,14.57
2022-10-07T20:01:06.641Z,14.59
2022-10-07T20:03:08.693Z,14.56
2022-10-07T20:05:10.285Z,14.57
2022-10-07T20:07:12.191Z,14.58
2022-10-07T20:09:16.512Z,14.56
2022-10-07T20:11:18.134Z,14.53
2022-10-07T20:13:19.729Z,14.53
2022-10-07T20:15:23.231Z,14.50
2022-10-07T20:17:24.788Z,14.50
2022-10-07T20:19:26.401Z,14.47
2022-10-07T20:21:28.558Z,14.41
2022-10-07T20:23:34.472Z,14.46
2022-10-07T20:25:39.110Z,14.45
2022-10-07T20:27:40.921Z,14.43
2022-10-07T20:29:57.768Z,14.41
2022-10-07T20:31:59.387Z,14.41
2022-10-07T20:34:01.784Z,14.41
2022-10-07T20:36:04.047Z,14.37
2022-10-07T20:38:05.640Z,14.38
2022-10-07T20:40:26.438Z,14.36
2022-10-07T20:42:29.765Z,14.34
2022-10-07T20:44:31.407Z,14.34
2022-10-07T20:46:33.609Z,14.32
2022-10-07T20:48:35.924Z,14.34
2022-10-07T20:50:39.398Z,14.34
2022-10-07T20:52:41.312Z,14.35
2022-10-07T20:54:43.677Z,14.31
2022-10-07T20:56:45.645Z,14.30
2022-10-07T20:58:47.459Z,14.32
2022-10-07T21:00:49.001Z,14.32
2022-10-07T21:02:51.127Z,14.29
2022-10-07T21:04:53.417Z,14.24
2022-10-07T21:06:58.166Z,14.25
2022-10-07T21:08:59.890Z,14.24
2022-10-07T21:11:02.514Z,14.24
2022-10-07T21:13:04.135Z,14.20
2022-10-07T21:15:06.883Z,14.21
2022-10-07T21:17:08.777Z,14.11
2022-10-07T21:19:10.372Z,14.06
2022-10-07T21:21:11.978Z,14.06
2022-10-07T21:23:13.572Z,14.08
2022-10-07T21:25:15.497Z,14.06
2022-10-07T21:27:17.218Z,14.08
2022-10-07T21:29:19.024Z,14.05
2022-10-07T21:31:22.385Z,14.04
2022-10-07T21:33:24.311Z,14.02
2022-10-07T21:35:25.911Z,13.98
2022-10-07T21:37:29.662Z,13.91
2022-10-07T21:39:31.136Z,13.88
2022-10-07T21:41:34.997Z,13.80
2022-10-07T21:43:36.540Z,13.83
2022-10-07T21:45:39.289Z,13.82
2022-10-07T21:47:41.056Z,13.80
2022-10-07T21:49:42.640Z,13.80
2022-10-07T21:51:44.748Z,13.79
2022-10-07T21:53:53.271Z,13.77
2022-10-07T21:55:54.936Z,13.77
2022-10-07T21:57:56.697Z,13.75
2022-10-07T21:59:58.409Z,13.77
2022-10-07T22:02:00.034Z,13.78
2022-10-07T22:04:02.528Z,13.77
2022-10-07T22:06:06.176Z,13.68
2022-10-07T22:08:30.926Z,13.58
2022-10-07T22:10:32.546Z,13.53
2022-10-07T22:12:34.334Z,13.50
2022-10-07T22:14:35.991Z,13.49
2022-10-07T22:16:37.825Z,13.47
2022-10-07T22:18:39.537Z,13.41
2022-10-07T22:20:41.546Z,13.40
2022-10-07T22:22:43.366Z,13.40
2022-10-07T22:24:45.157Z,13.42
2022-10-07T22:26:48.033Z,13.42
2022-10-07T22:28:50.038Z,13.48
2022-10-07T22:30:51.920Z,13.51
2022-10-07T22:32:53.760Z,13.55
2022-10-07T22:35:13.915Z,13.54
2022-10-07T22:37:15.573Z,13.55
2022-10-07T22:39:17.162Z,13.50
2022-10-07T22:41:19.494Z,13.50
2022-10-07T22:43:21.123Z,13.43
2022-10-07T22:45:22.700Z,13.15
2022-10-07T22:47:24.833Z,12.98
2022-10-07T22:49:29.785Z,12.75
2022-10-07T22:51:31.973Z,12.58
2022-10-07T22:53:36.856Z,12.52
2022-10-07T22:55:38.549Z,12.45
2022-10-07T22:57:40.180Z,12.52
2022-10-07T22:59:41.804Z,12.40
2022-10-07T23:01:43.367Z,12.32
2022-10-07T23:03:45.711Z,12.09
2022-10-07T23:05:50.525Z,12.12
2022-10-07T23:07:52.570Z,12.19
2022-10-07T23:09:54.403Z,12.29
2022-10-07T23:11:56.041Z,12.38
2022-10-07T23:13:57.973Z,12.43
2022-10-07T23:16:04.746Z,12.48
2022-10-07T23:18:06.401Z,12.54
2022-10-07T23:20:08.321Z,12.61
2022-10-07T23:22:10.030Z,12.40
2022-10-07T23:24:11.923Z,12.39
2022-10-07T23:26:18.939Z,12.47
2022-10-07T23:28:22.055Z,12.57
2022-10-07T23:30:23.936Z,12.59
2022-10-07T23:32:25.505Z,12.62
2022-10-07T23:34:27.448Z,12.66
2022-10-07T23:36:30.053Z,12.63
2022-10-07T23:38:35.926Z,12.63
2022-10-07T23:40:37.529Z,12.64
2022-10-07T23:42:39.190Z,12.64
2022-10-07T23:44:40.802Z,12.64
2022-10-07T23:46:42.515Z,12.66
2022-10-07T23:48:44.432Z,12.66
2022-10-07T23:50:50.380Z,12.67
2022-10-07T23:52:52.023Z,12.66
2022-10-07T23:54:53.649Z,12.64
2022-10-07T23:56:55.252Z,12.65
2022-10-07T23:58:56.916Z,12.61
